x

Halibut Bank (46146) Wave Buoy

1:00pm - Wed 27th May 2015 All times are PDT. -7 hours from GMT.

  • Sig Wave height 0.7ft
  • Peak Period 3s
  • Wind
    2mph, 4mph gusts
  • Sea Temp 64°f
  • 空気 Temp 63°f
  • Sea Pressure 1018.2mb
  • Halibut Bank
  • Halibut Bank

More Historic Weather Station data

Upgrade to MSW Pro to gain access to the past 30 days of data for over 8000 Wavebouys and Weather Stations around the globe.

Join Pro

Comparision Forecast

View Surf forecast
   
Wed 05/27 1:00pm 0.7ft 3s 2 4 mph 1018.2mb 64f 63f
12:00pm 0.7ft 3s 2
mph
1018.4mb 63f 62f
11:00am 1ft 3s 4 7 mph 1018.4mb 63f 61f
10:00am 1ft 3s 9
mph
1018.3mb 62f 60f
9:00am 0.7ft 3s 11 13 mph 1018.4mb 62f 60f
8:00am 0.7ft 3s 9 11 mph 1018.2mb 62f 61f
7:00am 0.3ft 6s 2
mph
1018.1mb 62f 61f
6:00am 0.3ft 6s 4
mph
1017.9mb 62f 61f
5:00am 0.3ft 3s 4 7 mph 1017.4mb 62f 61f
4:00am 0.3ft 2s 2
mph
1017.1mb 62f 61f
3:00am 0.3ft 4s 4 7 mph 1016.9mb 61f 60f
2:00am 0.3ft 2s 4
mph
1016.6mb 61f 61f
1:00am 0.3ft 2s 4 7 mph 1016.6mb 62f 62f
12:00am 0.3ft 2s 4 7 mph 1016.5mb 62f 62f
Tue 05/26 11:00pm 0.3ft 4s 7 9 mph 1016.4mb 62f 62f
10:00pm 0.3ft 14s 9
mph
1016.2mb 62f 62f
9:00pm 0.7ft 6s 9
mph
1015.6mb 63f 62f
8:00pm 0.3ft 2s 11 13 mph 1015.6mb 64f 63f
7:00pm 0.7ft 6s 11 13 mph 1015.5mb 63f 63f
6:00pm 0.3ft 4s 9 11 mph 1015.7mb 64f 62f
5:00pm 0.3ft 6s 7
mph
1016.1mb 64f 62f
4:00pm 0.7ft 3s 4 7 mph 1016.6mb 64f 62f
3:00pm 0.7ft 3s 2
mph
1016.9mb 63f 62f
2:00pm 1ft 3s 4
mph
1017.2mb 62f 61f
1:00pm 1ft 3s 9
mph
1017.5mb 62f 60f
12:00pm 1.3ft 4s 11 13 mph 1017.7mb 62f 59f
11:00am 1.3ft 3s 11 13 mph 1017.7mb 61f 59f
10:00am 0.3ft 3s 4
mph
1017.8mb 61f 60f
9:00am 0.3ft 3s 2 4 mph 1017.8mb 61f 60f
8:00am 0.3ft 4s  -  mph 1017.8mb 61f 59f
7:00am 0.3ft 2s 2 4 mph 1017.4mb 61f 59f
6:00am 0.3ft 2s  -  2 mph 1017.3mb 61f 58f
5:00am 0.3ft 2s 4 7 mph 1017mb 61f 59f
4:00am 0.3ft 3s 7 9 mph 1016.7mb 61f 58f
3:00am 0.3ft 2s 7 9 mph 1016.5mb 61f 59f
2:00am 0.7ft 2s 9 11 mph 1016.4mb 61f 60f
1:00am 0.7ft 2s 11
mph
1016.2mb 61f 59f
12:00am 0.7ft 2s 13 16 mph 1015.9mb 61f 60f
Mon 05/25 11:00pm 0.7ft 2s 11 13 mph 1015.7mb 61f 60f
10:00pm 0.7ft 2s 11 13 mph 1015.7mb 61f 60f
9:00pm 0.7ft 2s 11
mph
1015.4mb 61f 60f
8:00pm 0.7ft 2s 9 11 mph 1015.3mb 61f 60f
7:00pm 0.7ft 6s 11 13 mph 1015.2mb 61f 60f
6:00pm 0.7ft 2s 11 13 mph 1015.1mb 61f 60f
5:00pm 0.7ft 2s 11 13 mph 1015.5mb 61f 59f
4:00pm 0.7ft 2s 11
mph
1015.8mb 61f 58f
3:00pm 1ft 2s 11 13 mph 1015.9mb 61f 58f
2:00pm 1ft 2s 11 13 mph 1016.1mb 61f 57f
1:00pm 1ft 2s 11 13 mph 1016.1mb 61f 57f
12:00pm 1ft 3s 11 13 mph 1015.9mb 61f 56f
11:00am 1ft 3s 9 11 mph 1015.7mb 61f 56f
10:00am 1.3ft 3s 9 13 mph 1015.4mb 61f 56f
9:00am 1ft 3s 7 9 mph 1015.3mb 61f 57f
8:00am 0.7ft 3s 2 4 mph 1015.1mb 61f 57f
7:00am 0.7ft 2s 2 4 mph 1015.1mb 61f 57f
6:00am 0.7ft 3s 7 9 mph 1014.8mb 61f 57f
5:00am 1ft 3s 7 9 mph 1014.7mb 61f 57f
4:00am 1ft 3s 7 11 mph 1014.7mb 61f 57f
3:00am 1ft 3s 7 9 mph 1015.2mb 61f 58f
2:00am 1ft 3s 13 16 mph 1014.7mb 61f 58f
1:00am 1ft 2s 13 16 mph 1014.8mb 61f 59f
12:00am 1ft 3s 13 16 mph 1014.9mb 61f 60f
Sun 05/24 11:00pm 1.3ft 3s 13 16 mph 1014.8mb 62f 60f
10:00pm 1.3ft 2s 13 16 mph 1014.9mb 62f 60f
9:00pm 1ft 2s 13 16 mph 1014.8mb 62f 61f
8:00pm 0.7ft 2s 11 13 mph 1015.1mb 62f 61f
7:00pm 0.7ft 2s 11
mph
1015.2mb 62f 61f
6:00pm 0.7ft 2s 11 13 mph 1015.6mb 63f 61f
5:00pm 0.3ft 6s 11
mph
1016.2mb 63f 60f
4:00pm 0.3ft 7s 9
mph
1016.8mb 64f 59f
3:00pm 0.3ft 3s 4 7 mph 1017.8mb 63f 58f
2:00pm 0.3ft 2s 2 4 mph 1018.3mb 63f 59f
1:00pm 0.3ft 2s 2 4 mph 1018.9mb 63f 58f
12:00pm 0.7ft 2s 4 7 mph 1019.3mb 62f 58f
11:00am 0.7ft 2s 4 7 mph 1019.6mb 62f 57f
10:00am 0.7ft 3s 9 11 mph 1019.6mb 62f 57f
9:00am 0.7ft 3s 9
mph
1020mb 62f 57f
8:00am 1ft 3s 7 9 mph 1020.2mb 62f 57f
7:00am 1ft 3s 9 11 mph 1020.4mb 62f 57f
6:00am 1ft 3s 9 11 mph 1020.4mb 62f 57f
5:00am 1.3ft 3s 11 13 mph 1020.1mb 62f 57f
4:00am 1.3ft 3s 11 13 mph 1020.2mb 62f 58f
3:00am 1.6ft 4s 16 18 mph 1020mb 62f 58f
2:00am 1.6ft 3s 11 16 mph 1020.4mb 62f 58f
1:00am 1.6ft 3s 16 18 mph 1020.6mb 62f 58f
12:00am 1.3ft 3s 11 13 mph 1020.6mb 62f 60f
Sat 05/23 11:00pm 2ft 3s 13
mph
1020.2mb 62f 60f
10:00pm 2ft 3s 13 16 mph 1020.3mb 62f 59f